.
WxDataArchive / Data Records for 2007-09-17
2007-09-16 September 2007 2007-09-18

Data Records for Monday, 17 September 2007

Time	Temp	Chill	HIndex	Humid	Dewpt	 Wind 	HiWind	WindDir	Rain 	Barom 
-----	----	-----	------	-----	-----	------	------	-------	-----	----- 
00:00	46.7	46.7	46.7	82	41.5	0	0	---	0.00	30.182 
00:05	46.5	46.5	46.5	82	41.3	0	0	---	0.00	30.181 
00:10	46.4	46.4	46.4	82	41.2	0	0	---	0.00	30.180 
00:15	46.4	46.4	46.4	81	40.9	0	0	---	0.00	30.181 
00:20	46.4	46.4	46.4	81	40.9	0	1	112	0.00	30.179 
00:25	46.5	46.5	46.5	81	41.0	0	0	---	0.00	30.178 
00:30	46.7	46.7	46.7	81	41.2	0	0	---	0.00	30.181 
00:35	46.7	46.7	46.7	81	41.2	0	0	---	0.00	30.183 
00:40	46.5	46.5	46.5	81	41.0	0	1	112	0.00	30.183 
00:45	46.5	46.5	46.5	81	41.0	0	1	112	0.00	30.179 
00:50	46.5	46.5	46.5	81	41.0	0	0	---	0.00	30.180 
00:55	46.5	46.5	46.5	81	41.0	0	0	---	0.00	30.180 
01:00	46.5	46.5	46.5	81	41.0	0	1	112	0.00	30.178 
01:05	46.4	46.4	46.4	82	41.2	0	0	---	0.00	30.181 
01:10	46.2	46.2	46.2	83	41.3	0	1	112	0.00	30.179 
01:15	46.2	46.2	46.2	83	41.3	0	1	112	0.00	30.178 
01:20	46.2	46.2	46.2	83	41.3	0	0	---	0.00	30.179 
01:25	46.2	46.2	46.2	83	41.3	0	0	---	0.00	30.178 
01:30	46.1	46.1	46.1	83	41.2	0	0	---	0.00	30.180 
01:35	46.0	46.0	46.0	83	41.1	0	0	---	0.00	30.181 
01:40	45.8	45.8	45.8	84	41.2	0	0	---	0.00	30.182 
01:45	45.7	45.7	45.7	84	41.1	0	0	---	0.00	30.180 
01:50	45.5	45.5	45.5	85	41.3	0	0	---	0.00	30.181 
01:55	45.4	45.4	45.4	85	41.2	0	0	---	0.00	30.180 
02:00	45.2	45.2	45.2	85	41.0	0	0	---	0.00	30.183 
02:05	44.9	44.9	44.9	85	40.7	0	0	---	0.00	30.185 
02:10	44.8	44.8	44.8	86	40.9	0	0	---	0.00	30.187 
02:15	44.6	44.6	44.6	87	41.0	0	0	---	0.00	30.188 
02:20	44.5	44.5	44.5	88	41.2	0	0	---	0.00	30.185 
02:25	44.2	44.2	44.2	88	40.9	0	0	---	0.00	30.185 
02:30	44.2	44.2	44.2	89	41.2	0	0	---	0.00	30.184 
02:35	44.1	44.1	44.1	89	41.1	0	0	---	0.00	30.185 
02:40	44.1	44.1	44.1	89	41.1	0	0	---	0.00	30.186 
02:45	43.9	43.9	43.9	89	40.9	0	0	---	0.00	30.190 
02:50	43.9	43.9	43.9	90	41.2	0	0	---	0.00	30.192 
02:55	43.8	43.8	43.8	90	41.1	0	0	---	0.00	30.191 
03:00	43.8	43.8	43.8	90	41.1	0	0	---	0.00	30.191 
03:05	43.6	43.6	43.6	90	40.9	0	1	112	0.00	30.190 
03:10	43.6	43.6	43.6	90	40.9	0	0	---	0.00	30.190 
03:15	43.8	43.8	43.8	91	41.3	0	1	112	0.00	30.190 
03:20	43.8	43.8	43.8	90	41.1	0	0	---	0.00	30.190 
03:25	43.8	43.8	43.8	90	41.1	0	0	---	0.00	30.191 
03:30	43.8	43.8	43.8	90	41.1	0	0	---	0.00	30.192 
03:35	43.6	43.6	43.6	90	40.9	0	0	---	0.00	30.191 
03:40	43.5	43.5	43.5	90	40.8	0	0	---	0.00	30.193 
03:45	43.5	43.5	43.5	91	41.0	0	0	---	0.00	30.192 
03:50	43.3	43.3	43.3	91	40.9	0	0	---	0.00	30.194 
03:55	43.2	43.2	43.2	91	40.8	0	0	---	0.00	30.195 
04:00	43.1	43.1	43.1	91	40.7	0	0	---	0.00	30.194 
04:05	42.9	42.9	42.9	91	40.5	0	0	---	0.00	30.195 
04:10	42.9	42.9	42.9	91	40.5	0	0	---	0.00	30.195 
04:15	42.8	42.8	42.8	92	40.6	0	0	---	0.00	30.197 
04:20	42.6	42.6	42.6	92	40.4	0	0	---	0.00	30.199 
04:25	42.6	42.6	42.6	92	40.4	0	0	---	0.00	30.202 
04:30	42.5	42.5	42.5	92	40.3	0	0	---	0.00	30.208 
04:35	42.5	42.5	42.5	92	40.3	0	0	---	0.00	30.210 
04:40	42.3	42.3	42.3	92	40.1	0	0	---	0.00	30.211 
04:45	42.3	42.3	42.3	93	40.4	0	0	---	0.00	30.213 
04:50	42.2	42.2	42.2	93	40.3	0	0	---	0.00	30.214 
04:55	42.1	42.1	42.1	93	40.2	0	0	---	0.00	30.214 
05:00	41.9	41.9	41.9	93	40.0	0	0	---	0.00	30.215 
05:05	41.8	41.8	41.8	93	39.9	0	0	---	0.00	30.222 
05:10	41.8	41.8	41.8	93	39.9	0	0	---	0.00	30.221 
05:15	41.9	41.9	41.9	94	40.3	0	1	112	0.00	30.218 
05:20	42.2	42.2	42.2	94	40.6	0	0	---	0.00	30.222 
05:25	42.2	42.2	42.2	94	40.6	0	0	---	0.00	30.226 
05:30	42.2	42.2	42.2	94	40.6	0	0	---	0.00	30.226 
05:35	42.2	42.2	42.2	94	40.6	0	0	---	0.00	30.223 
05:40	42.1	42.1	42.1	94	40.5	0	0	---	0.00	30.225 
05:45	42.2	42.2	42.2	94	40.6	0	1	112	0.00	30.224 
05:50	42.3	42.3	42.3	94	40.7	0	0	---	0.00	30.225 
05:55	42.3	42.3	42.3	94	40.7	0	0	---	0.00	30.227 
06:00	42.3	42.3	42.3	94	40.7	0	0	---	0.00	30.229 
06:05	42.3	42.3	42.3	94	40.7	0	0	---	0.00	30.237 
06:10	42.2	42.2	42.2	94	40.6	0	0	---	0.00	30.242 
06:15	42.2	42.2	42.2	94	40.6	0	0	---	0.00	30.242 
06:20	42.1	42.1	42.1	94	40.5	0	0	---	0.00	30.243 
06:25	41.9	41.9	41.9	94	40.3	0	0	---	0.00	30.247 
06:30	41.9	41.9	41.9	94	40.3	0	0	---	0.00	30.251 
06:35	41.9	41.9	41.9	94	40.3	0	0	---	0.00	30.250 
06:40	41.9	41.9	41.9	95	40.6	0	0	---	0.00	30.252 
06:45	42.1	42.1	42.1	95	40.8	0	0	---	0.00	30.258 
06:50	42.1	42.1	42.1	95	40.8	0	0	---	0.00	30.256 
06:55	42.2	42.2	42.2	95	40.9	0	1	112	0.00	30.256 
07:00	42.8	42.8	42.8	96	41.7	0	1	112	0.00	30.252 
07:05	43.5	43.5	43.5	96	42.4	0	1	112	0.00	30.253 
07:10	44.1	44.1	44.1	95	42.8	0	1	112	0.00	30.263 
07:15	44.6	44.6	44.6	95	43.3	0	1	112	0.00	30.263 
07:20	45.7	45.7	45.7	93	43.8	0	1	112	0.00	30.265 
07:25	46.8	46.8	46.8	88	43.4	0	2	112	0.00	30.262 
07:30	47.7	47.7	47.7	85	43.4	0	2	112	0.00	30.263 
07:35	48.3	48.3	48.3	82	43.1	1	3	112	0.00	30.263 
07:40	48.9	48.9	48.9	81	43.3	0	2	112	0.00	30.256 
07:45	49.1	49.1	49.1	81	43.5	0	3	112	0.00	30.260 
07:50	49.2	49.2	49.2	81	43.6	1	3	90	0.00	30.260 
07:55	49.4	49.4	49.4	81	43.8	0	2	90	0.00	30.260 
08:00	49.8	49.8	49.8	80	43.9	1	2	90	0.00	30.260 
08:05	50.2	50.2	50.2	77	43.3	1	3	68	0.00	30.263 
08:10	50.7	50.7	50.7	77	43.8	1	4	68	0.00	30.249 
08:15	51.0	51.0	51.0	76	43.7	1	4	112	0.00	30.258 
08:20	51.4	51.4	51.4	77	44.4	1	3	112	0.00	30.255 
08:25	51.9	51.9	51.9	76	44.6	1	3	112	0.00	30.255 
08:30	52.3	52.3	52.3	75	44.6	0	3	112	0.00	30.257 
08:35	52.8	52.8	52.8	75	45.1	0	2	112	0.00	30.258 
08:40	53.3	53.3	53.3	74	45.2	1	5	112	0.00	30.257 
08:45	53.8	53.8	53.8	73	45.3	1	3	90	0.00	30.258 
08:50	54.8	54.8	54.8	73	46.3	1	3	90	0.00	30.260 
08:55	56.0	56.0	56.0	68	45.6	1	4	112	0.00	30.252 
09:00	56.9	56.9	56.9	66	45.7	2	4	90	0.00	30.249 
09:05	57.8	57.8	57.8	66	46.5	1	3	68	0.00	30.248 
09:10	58.9	58.9	58.9	65	47.2	1	3	68	0.00	30.257 
09:15	59.8	59.8	59.8	61	46.3	1	3	90	0.00	30.249 
09:20	60.5	60.5	60.5	60	46.5	1	3	90	0.00	30.248 
09:25	61.3	61.3	61.3	61	47.7	1	3	112	0.00	30.247 
09:30	62.1	62.1	62.1	59	47.6	1	4	112	0.00	30.243 
09:35	62.9	62.9	62.9	58	47.9	1	3	68	0.00	30.243 
09:40	63.7	63.7	63.7	55	47.2	1	4	112	0.00	30.241 
09:45	64.0	64.0	64.0	52	46.0	2	6	90	0.00	30.244 
09:50	64.7	64.7	64.7	54	47.7	1	2	90	0.00	30.243 
09:55	65.5	65.5	65.5	50	46.4	1	4	90	0.00	30.242 
10:00	66.0	66.0	66.0	48	45.7	1	4	112	0.00	30.240 
10:05	66.3	66.3	66.3	48	46.0	1	4	112	0.00	30.241 
10:10	66.4	66.4	66.4	48	46.1	2	4	90	0.00	30.241 
10:15	66.8	66.8	66.8	46	45.3	2	4	90	0.00	30.238 
10:20	67.3	67.3	67.3	47	46.4	1	3	90	0.00	30.236 
10:25	67.8	67.8	67.8	46	46.3	2	5	90	0.00	30.235 
10:30	68.1	68.1	68.1	44	45.4	2	6	90	0.00	30.236 
10:35	68.1	68.1	68.1	46	46.5	2	4	112	0.00	30.236 
10:40	67.9	67.9	67.9	45	45.8	1	3	68	0.00	30.235 
10:45	68.3	68.3	68.3	44	45.5	1	4	112	0.00	30.235 
10:50	68.8	68.8	68.8	42	44.8	1	5	270	0.00	30.233 
10:55	69.1	69.1	69.1	44	46.3	1	6	112	0.00	30.228 
11:00	69.6	69.6	69.6	44	46.7	2	4	112	0.00	30.227 
11:05	69.8	69.8	69.8	46	48.1	1	4	90	0.00	30.226 
11:10	70.1	70.1	70.1	41	45.3	1	4	112	0.00	30.223 
11:15	70.4	70.4	70.4	46	48.6	1	5	112	0.00	30.224 
11:20	70.4	70.4	70.4	42	46.2	1	5	292	0.00	30.221 
11:25	70.4	70.4	70.4	46	48.6	1	4	90	0.00	30.224 
11:30	70.8	70.8	70.8	43	47.2	2	5	90	0.00	30.222 
11:35	70.9	70.9	70.9	41	46.0	1	6	90	0.00	30.222 
11:40	71.3	71.3	71.3	42	47.0	2	4	90	0.00	30.218 
11:45	71.5	71.5	71.5	43	47.8	1	3	90	0.00	30.217 
11:50	71.8	71.8	71.8	40	46.2	1	4	90	0.00	30.217 
11:55	72.0	72.0	72.0	39	45.7	2	5	90	0.00	30.216 
12:00	72.1	72.1	72.1	40	46.4	1	4	112	0.00	30.215 
12:05	72.7	72.7	72.7	40	47.0	1	3	248	0.00	30.211 
12:10	73.0	73.0	73.0	38	45.9	2	5	90	0.00	30.209 
12:15	72.8	72.8	72.8	40	47.1	1	3	90	0.00	30.209 
12:20	73.0	73.0	73.0	39	46.6	1	4	90	0.00	30.204 
12:25	73.2	73.2	73.2	36	44.6	2	5	90	0.00	30.202 
12:30	73.3	73.3	73.3	34	43.2	2	6	90	0.00	30.202 
12:35	73.5	73.5	73.5	36	44.9	2	5	90	0.00	30.201 
12:40	74.0	74.0	74.0	36	45.3	1	6	90	0.00	30.201 
12:45	74.2	74.2	74.2	34	44.0	1	4	112	0.00	30.201 
12:50	74.2	74.2	74.2	33	43.2	1	4	112	0.00	30.200 
12:55	73.9	73.9	73.9	34	43.7	1	4	90	0.00	30.200 
13:00	73.5	73.5	73.5	35	44.2	1	6	90	0.00	30.197 
13:05	73.7	73.7	73.7	34	43.6	2	5	90	0.00	30.198 
13:10	73.9	73.9	73.9	36	45.2	1	5	22	0.00	30.196 
13:15	74.2	74.2	74.2	35	44.8	1	4	135	0.00	30.191 
13:20	74.4	74.4	74.4	33	43.4	1	3	90	0.00	30.188 
13:25	74.6	74.6	74.6	36	45.9	2	5	112	0.00	30.184 
13:30	74.7	74.7	74.7	35	45.2	2	5	90	0.00	30.184 
13:35	74.9	74.9	74.9	36	46.1	1	4	135	0.00	30.183 
13:40	74.4	74.4	74.4	33	43.4	2	6	112	0.00	30.181 
13:45	74.0	74.0	74.0	35	44.6	2	5	112	0.00	30.180 
13:50	73.9	73.9	73.9	35	44.5	1	4	112	0.00	30.179 
13:55	73.9	73.9	73.9	36	45.2	1	5	112	0.00	30.175 
14:00	74.0	74.0	74.0	35	44.6	1	4	135	0.00	30.175 
14:05	74.4	74.4	74.4	35	44.9	2	5	112	0.00	30.172 
14:10	74.9	74.9	74.9	36	46.1	2	5	112	0.00	30.172 
14:15	74.9	74.9	74.9	34	44.6	2	5	135	0.00	30.170 
14:20	75.3	75.3	77.5	39	48.6	1	4	90	0.00	30.169 
14:25	75.6	75.6	77.4	35	46.0	1	3	180	0.00	30.168 
14:30	75.3	75.3	77.3	34	45.0	3	5	90	0.00	30.167 
14:35	75.3	75.3	77.4	35	45.7	1	3	90	0.00	30.168 
14:40	75.4	75.4	77.4	35	45.8	1	7	90	0.00	30.165 
14:45	75.6	75.6	77.4	35	46.0	2	4	112	0.00	30.160 
14:50	75.8	75.8	77.5	34	45.4	2	4	68	0.00	30.159 
14:55	75.8	75.8	77.7	38	48.4	2	6	90	0.00	30.156 
15:00	75.6	75.6	77.4	35	46.0	2	7	90	0.00	30.155 
15:05	75.4	75.4	77.4	35	45.8	2	4	90	0.00	30.157 
15:10	75.3	75.3	77.4	35	45.7	2	6	90	0.00	30.158 
15:15	75.6	75.6	77.4	35	46.0	1	4	112	0.00	30.158 
15:20	76.0	76.0	77.6	35	46.4	2	6	90	0.00	30.155 
15:25	75.8	75.8	77.5	35	46.2	2	6	90	0.00	30.155 
15:30	75.8	75.8	77.6	36	46.9	1	5	112	0.00	30.154 
15:35	75.8	75.8	77.5	34	45.4	1	5	112	0.00	30.154 
15:40	75.8	75.8	77.4	33	44.6	1	4	90	0.00	30.155 
15:45	76.0	76.0	77.6	35	46.4	1	3	112	0.00	30.155 
15:50	75.8	75.8	77.5	35	46.2	1	3	112	0.00	30.154 
15:55	75.8	75.8	77.5	34	45.4	1	5	270	0.00	30.157 
16:00	75.6	75.6	77.4	35	46.0	1	3	112	0.00	30.159 
16:05	75.6	75.6	77.4	35	46.0	1	4	90	0.00	30.163 
16:10	75.6	75.6	77.6	38	48.2	1	4	112	0.00	30.163 
16:15	75.4	75.4	77.4	35	45.8	2	5	112	0.00	30.159 
16:20	75.4	75.4	77.4	35	45.8	1	3	112	0.00	30.158 
16:25	75.4	75.4	77.4	35	45.8	1	4	90	0.00	30.157 
16:30	75.4	75.4	77.4	35	45.8	1	4	112	0.00	30.157 
16:35	75.4	75.4	77.4	36	46.6	1	4	112	0.00	30.157 
16:40	75.3	75.3	77.4	36	46.5	1	4	112	0.00	30.157 
16:45	75.3	75.3	77.5	38	47.9	1	3	112	0.00	30.157 
16:50	75.3	75.3	77.4	35	45.7	1	3	112	0.00	30.159 
16:55	75.1	75.1	77.3	35	45.6	1	4	90	0.00	30.158 
17:00	74.9	74.9	74.9	37	46.9	1	3	90	0.00	30.158 
17:05	74.7	74.7	74.7	36	46.0	1	3	112	0.00	30.157 
17:10	74.4	74.4	74.4	36	45.7	2	4	90	0.00	30.156 
17:15	74.0	74.0	74.0	38	46.8	1	4	112	0.00	30.156 
17:20	73.9	73.9	73.9	39	47.4	1	6	112	0.00	30.156 
17:25	73.7	73.7	73.7	39	47.2	1	4	90	0.00	30.156 
17:30	73.5	73.5	73.5	40	47.7	1	5	112	0.00	30.159 
17:35	73.2	73.2	73.2	40	47.4	1	5	112	0.00	30.161 
17:40	73.0	73.0	73.0	41	47.9	0	2	112	0.00	30.162 
17:45	72.7	72.7	72.7	41	47.6	0	1	112	0.00	30.163 
17:50	72.3	72.3	72.3	41	47.3	0	2	112	0.00	30.164 
17:55	72.0	72.0	72.0	42	47.6	0	2	112	0.00	30.162 
18:00	71.6	71.6	71.6	43	47.9	0	2	112	0.00	30.163 
18:05	71.5	71.5	71.5	43	47.8	1	2	112	0.00	30.160 
18:10	71.1	71.1	71.1	44	48.1	0	2	112	0.00	30.161 
18:15	70.8	70.8	70.8	46	49.0	0	1	112	0.00	30.159 
18:20	70.4	70.4	70.4	45	48.0	0	1	112	0.00	30.159 
18:25	70.1	70.1	70.1	46	48.3	0	1	112	0.00	30.160 
18:30	69.6	69.6	69.6	47	48.5	0	1	112	0.00	30.159 
18:35	69.3	69.3	69.3	47	48.2	0	1	112	0.00	30.159 
18:40	68.9	68.9	68.9	47	47.8	0	2	112	0.00	30.160 
18:45	68.8	68.8	68.8	48	48.3	0	3	112	0.00	30.164 
18:50	68.4	68.4	68.4	48	47.9	0	1	112	0.00	30.167 
18:55	68.3	68.3	68.3	49	48.4	0	1	112	0.00	30.165 
19:00	67.9	67.9	67.9	49	48.0	0	1	112	0.00	30.164 
19:05	67.4	67.4	67.4	50	48.1	0	0	---	0.00	30.158 
19:10	67.1	67.1	67.1	50	47.8	0	0	---	0.00	30.160 
19:15	66.8	66.8	66.8	51	48.1	0	0	---	0.00	30.162 
19:20	66.4	66.4	66.4	51	47.7	0	0	---	0.00	30.161 
19:25	66.1	66.1	66.1	52	48.0	0	0	---	0.00	30.163 
19:30	65.8	65.8	65.8	53	48.2	0	0	---	0.00	30.164 
19:35	65.5	65.5	65.5	53	47.9	0	0	---	0.00	30.168 
19:40	65.2	65.2	65.2	54	48.1	0	0	---	0.00	30.172 
19:45	64.8	64.8	64.8	54	47.8	0	0	---	0.00	30.172 
19:50	64.7	64.7	64.7	54	47.7	0	0	---	0.00	30.173 
19:55	64.3	64.3	64.3	54	47.3	0	0	---	0.00	30.173 
20:00	64.2	64.2	64.2	56	48.2	0	0	---	0.00	30.174 
20:05	64.0	64.0	64.0	56	48.0	0	0	---	0.00	30.169 
20:10	63.7	63.7	63.7	57	48.2	0	0	---	0.00	30.169 
20:15	63.7	63.7	63.7	57	48.2	0	1	112	0.00	30.168 
20:20	63.4	63.4	63.4	57	47.9	0	0	---	0.00	30.167 
20:25	63.2	63.2	63.2	57	47.7	0	0	---	0.00	30.167 
20:30	63.1	63.1	63.1	59	48.5	0	0	---	0.00	30.167 
20:35	62.7	62.7	62.7	59	48.2	0	0	---	0.00	30.167 
20:40	62.4	62.4	62.4	60	48.3	0	0	---	0.00	30.167 
20:45	62.1	62.1	62.1	61	48.5	0	0	---	0.00	30.165 
20:50	61.8	61.8	61.8	62	48.6	0	0	---	0.00	30.164 
20:55	61.6	61.6	61.6	62	48.4	0	0	---	0.00	30.166 
21:00	61.3	61.3	61.3	63	48.6	0	0	---	0.00	30.163 
21:05	61.2	61.2	61.2	63	48.5	0	1	112	0.00	30.158 
21:10	61.0	61.0	61.0	63	48.3	0	0	---	0.00	30.153 
21:15	60.9	60.9	60.9	63	48.2	0	1	112	0.00	30.152 
21:20	60.9	60.9	60.9	63	48.2	0	1	112	0.00	30.151 
21:25	60.9	60.9	60.9	64	48.6	0	0	---	0.00	30.150 
21:30	60.9	60.9	60.9	63	48.2	0	1	112	0.00	30.148 
21:35	61.0	61.0	61.0	63	48.3	0	1	112	0.00	30.148 
21:40	61.2	61.2	61.2	63	48.5	0	1	112	0.00	30.149 
21:45	61.0	61.0	61.0	63	48.3	0	1	112	0.00	30.149 
21:50	60.9	60.9	60.9	65	49.1	0	0	---	0.00	30.152 
21:55	60.7	60.7	60.7	65	48.9	0	0	---	0.00	30.155 
22:00	60.4	60.4	60.4	65	48.6	0	1	112	0.00	30.152 
22:05	60.2	60.2	60.2	65	48.4	0	0	---	0.00	30.149 
22:10	60.2	60.2	60.2	65	48.4	0	0	---	0.00	30.148 
22:15	60.1	60.1	60.1	65	48.3	0	0	---	0.00	30.150 
22:20	59.9	59.9	59.9	66	48.5	0	0	---	0.00	30.150 
22:25	59.9	59.9	59.9	66	48.5	0	1	112	0.00	30.148 
22:30	59.8	59.8	59.8	67	48.8	0	0	---	0.00	30.147 
22:35	59.6	59.6	59.6	68	49.0	0	0	---	0.00	30.147 
22:40	59.3	59.3	59.3	69	49.1	0	1	112	0.00	30.147 
22:45	59.2	59.2	59.2	68	48.6	0	1	112	0.00	30.146 
22:50	59.2	59.2	59.2	68	48.6	0	1	112	0.00	30.146 
22:55	59.3	59.3	59.3	68	48.7	0	1	112	0.00	30.147 
23:00	59.2	59.2	59.2	68	48.6	0	1	112	0.00	30.146 
23:05	59.2	59.2	59.2	68	48.6	0	1	112	0.00	30.144 
23:10	59.2	59.2	59.2	67	48.2	0	1	112	0.00	30.144 
23:15	59.2	59.2	59.2	68	48.6	0	1	112	0.00	30.143 
23:20	59.0	59.0	59.0	67	48.1	0	0	---	0.00	30.144 
23:25	59.0	59.0	59.0	67	48.1	0	1	112	0.00	30.142 
23:30	58.9	58.9	58.9	67	48.0	0	1	112	0.00	30.140 
23:35	58.9	58.9	58.9	66	47.6	0	1	112	0.00	30.141 
23:40	58.9	58.9	58.9	67	48.0	0	0	---	0.00	30.142 
23:45	58.9	58.9	58.9	67	48.0	0	0	---	0.00	30.142 
23:50	58.7	58.7	58.7	68	48.2	0	0	---	0.00	30.143 
23:55	58.4	58.4	58.4	69	48.3	0	0	---	0.00	30.144 

CoCoRaHS
IN-AL-39
A2 Web Hosting
Creative Commons License
GoDaddy
Look for:

loaded 2017-12-10 21:35:16 • last modified 2010-11-18 10:43:29
Privacy PolicyDisclaimer
• wx.awcolley.com is powered by PmWiki v.2002016 •
• all content (unless otherwise noted) © 2017 A W Colley